Time;durP1;ratioP1;P1;durP2;ratioP2;P2;SDS_P1;SDS_P2;PMS_P1;PMS_P2;Temp;Humidity;BMP_temperature;BMP_pressure;BME280_temperature;BME280_humidity;BME280_pressure;Samples;Min_cycle;Max_cycle;Signal;HPM_P1;HPM_P2
2021/06/14 00:01:59;;;;;;;7.78;1.33;;;;;;;13.79;50.01;93891.72;5093001;28;20035;-70
2021/06/14 00:04:25;;;;;;;5.32;1.10;;;;;;;13.88;50.32;93888.19;5092539;28;20020;-70
2021/06/14 00:06:51;;;;;;;3.38;1.25;;;;;;;13.88;50.40;93888.19;5092069;28;20104;-70
2021/06/14 00:09:21;;;;;;;2.03;1.08;;;;;;;13.79;50.37;93899.78;5090555;28;20024;-70
2021/06/14 00:11:47;;;;;;;5.18;1.40;;;;;;;13.75;50.66;93885.47;5099851;28;20051;-70
2021/06/14 00:14:12;;;;;;;12.20;1.30;;;;;;;13.71;51.22;93891.84;5126605;27;20444;-70
2021/06/14 00:16:38;;;;;;;3.90;1.10;;;;;;;13.76;51.35;93892.41;5091862;28;20406;-70
2021/06/14 00:19:08;;;;;;;5.47;1.23;;;;;;;13.73;51.45;93881.56;5104764;28;20032;-70
2021/06/14 00:21:34;;;;;;;2.42;1.38;;;;;;;13.71;51.42;93889.16;5110787;28;20031;-71
2021/06/14 00:24:00;;;;;;;5.35;1.40;;;;;;;13.71;51.51;93884.56;5110994;28;20406;-70
2021/06/14 00:26:25;;;;;;;7.00;1.48;;;;;;;13.67;51.29;93877.53;5110729;28;20028;-71
2021/06/14 00:28:51;;;;;;;4.40;1.23;;;;;;;13.75;51.48;93890.06;5107749;28;20118;-71
2021/06/14 00:31:17;;;;;;;3.83;1.05;;;;;;;13.75;51.44;93888.16;5111996;28;20031;-70
2021/06/14 00:33:43;;;;;;;2.45;1.45;;;;;;;13.75;51.96;93877.44;5092889;28;20024;-71
2021/06/14 00:36:09;;;;;;;3.70;1.30;;;;;;;13.76;51.57;93880.91;5091625;28;20063;-71
2021/06/14 00:38:36;;;;;;;5.10;1.13;;;;;;;13.78;52.06;93868.75;5097552;28;20483;-71
2021/06/14 00:41:02;;;;;;;6.28;1.75;;;;;;;13.72;52.13;93872.75;5100722;28;20615;-70
2021/06/14 00:43:28;;;;;;;3.58;1.58;;;;;;;13.67;52.58;93867.59;5090133;28;20110;-71
2021/06/14 00:45:53;;;;;;;7.65;1.50;;;;;;;13.69;52.70;93872.63;5091238;28;20597;-71
2021/06/14 00:48:19;;;;;;;3.85;1.42;;;;;;;13.66;52.60;93868.72;5100382;28;20032;-71
2021/06/14 00:50:50;;;;;;;2.60;1.27;;;;;;;13.62;52.51;93867.84;5104431;28;20063;-70
2021/06/14 00:53:24;;;;;;;2.58;1.20;;;;;;;13.62;52.85;93873.19;5089885;28;20060;-70
2021/06/14 00:55:49;;;;;;;6.22;1.30;;;;;;;13.69;52.74;93864.59;5089893;28;20028;-71
2021/06/14 00:58:16;;;;;;;5.85;1.40;;;;;;;13.64;52.95;93862.91;5111517;28;20106;-70
2021/06/14 01:00:42;;;;;;;7.93;1.42;;;;;;;13.56;53.22;93861.91;5111132;28;20080;-70
2021/06/14 01:03:08;;;;;;;3.50;1.38;;;;;;;13.50;53.81;93860.53;5111215;28;20054;-70
2021/06/14 01:05:37;;;;;;;5.90;1.20;;;;;;;13.59;53.39;93868.47;5109893;28;20399;-71
2021/06/14 01:08:04;;;;;;;5.40;1.63;;;;;;;13.61;53.52;93868.94;5092654;28;20024;-71
2021/06/14 01:10:30;;;;;;;8.55;1.50;;;;;;;13.51;53.73;93859.41;5104638;28;20035;-71
2021/06/14 01:13:16;;;;;;;3.95;1.17;;;;;;;13.57;53.58;93873.38;5109214;28;20047;-71
2021/06/14 01:16:12;;;;;;;5.65;1.42;;;;;;;13.46;54.04;93853.50;5093205;28;20501;-70
2021/06/14 01:19:19;;;;;;;7.20;1.88;;;;;;;13.46;54.21;93854.28;5089500;28;20070;-70
2021/06/14 01:22:08;;;;;;;3.20;1.45;;;;;;;13.41;54.24;93849.13;5061560;28;20491;-70
2021/06/14 01:24:41;;;;;;;4.35;1.48;;;;;;;13.39;54.31;93840.66;5089245;28;20030;-70
2021/06/14 01:27:06;;;;;;;2.55;1.23;;;;;;;13.44;54.27;93843.91;5088998;28;20028;-70
2021/06/14 01:29:33;;;;;;;9.73;2.05;;;;;;;13.48;54.39;93844.03;5089127;28;20080;-71
2021/06/14 01:32:01;;;;;;;3.42;1.67;;;;;;;13.49;54.21;93839.44;5088942;28;20036;-70
2021/06/14 01:34:29;;;;;;;7.30;1.52;;;;;;;13.42;54.45;93837.31;5097005;28;20471;-70
2021/06/14 01:36:58;;;;;;;5.88;1.58;;;;;;;13.39;54.47;93841.44;5109148;28;20036;-70
2021/06/14 01:39:29;;;;;;;4.85;1.35;;;;;;;13.40;54.76;93836.88;5109375;28;20505;-70
2021/06/14 01:41:56;;;;;;;5.45;1.42;;;;;;;13.40;54.81;93848.34;5110566;28;20031;-70
2021/06/14 01:44:24;;;;;;;4.75;1.35;;;;;;;13.42;54.76;93842.66;5109242;28;20080;-70
2021/06/14 01:46:53;;;;;;;6.75;1.85;;;;;;;13.46;54.55;93840.91;5105722;28;20027;-70
2021/06/14 01:49:20;;;;;;;7.95;1.50;;;;;;;13.43;55.17;93846.91;5088508;28;20395;-71
2021/06/14 01:51:46;;;;;;;6.97;1.70;;;;;;;13.43;55.03;93850.38;5090410;28;20028;-70
2021/06/14 01:54:12;;;;;;;4.15;1.25;;;;;;;13.38;54.51;93841.78;5089956;28;20427;-70
2021/06/14 01:56:46;;;;;;;6.03;1.40;;;;;;;13.34;55.00;93852.34;5105678;28;20140;-70
2021/06/14 01:59:19;;;;;;;3.78;1.30;;;;;;;13.33;55.16;93852.66;5096067;28;20028;-70
2021/06/14 02:01:46;;;;;;;5.90;1.58;;;;;;;13.32;55.31;93856.47;5094566;28;20414;-70
2021/06/14 02:04:12;;;;;;;7.70;1.48;;;;;;;13.33;55.10;93858.03;5108680;28;20076;-70
2021/06/14 02:06:40;;;;;;;3.47;1.60;;;;;;;13.24;55.42;93850.84;5109040;28;20027;-70
2021/06/14 02:09:09;;;;;;;3.85;1.58;;;;;;;13.23;55.30;93854.63;5108626;28;20469;-70
2021/06/14 02:11:36;;;;;;;4.53;1.35;;;;;;;13.13;56.00;93848.91;5108713;28;20060;-70
2021/06/14 02:14:02;;;;;;;7.13;1.20;;;;;;;13.15;56.13;93841.34;5110185;28;20111;-70
2021/06/14 02:16:28;;;;;;;5.10;1.45;;;;;;;13.25;55.51;93857.00;5088823;28;20114;-70
2021/06/14 02:18:54;;;;;;;7.55;1.75;;;;;;;13.20;56.10;93855.28;5089790;28;20039;-70
2021/06/14 02:21:21;;;;;;;4.30;1.50;;;;;;;13.20;56.15;93854.50;5091392;28;20020;-70
2021/06/14 02:23:46;;;;;;;8.52;1.73;;;;;;;13.20;56.07;93854.50;5108034;28;20462;-70
2021/06/14 02:26:13;;;;;;;6.10;1.80;;;;;;;13.20;56.70;93854.50;5110351;28;20059;-70
2021/06/14 02:28:38;;;;;;;4.40;1.63;;;;;;;13.14;56.43;93861.16;5090546;28;20030;-71
2021/06/14 02:31:04;;;;;;;3.08;1.30;;;;;;;13.08;56.94;93859.81;5089637;28;20507;-70
2021/06/14 02:33:30;;;;;;;3.17;1.73;;;;;;;12.97;57.33;93854.84;5108607;28;20062;-71
2021/06/14 02:35:56;;;;;;;5.18;1.60;;;;;;;12.98;57.36;93851.06;5108684;28;20027;-70
2021/06/14 02:38:24;;;;;;;2.20;1.20;;;;;;;13.00;57.10;93851.50;5101856;28;20024;-70
2021/06/14 02:40:49;;;;;;;6.05;1.58;;;;;;;13.01;57.39;93858.44;5088334;28;20403;-71
2021/06/14 02:43:15;;;;;;;3.40;1.65;;;;;;;13.04;57.20;93855.09;5089604;28;20030;-70
2021/06/14 02:45:43;;;;;;;2.95;2.22;;;;;;;13.01;57.01;93846.97;5089372;28;20036;-71
2021/06/14 02:48:09;;;;;;;9.18;1.52;;;;;;;12.98;57.41;93845.72;5088278;28;20024;-71
2021/06/14 02:50:37;;;;;;;13.23;1.92;;;;;;;12.92;57.60;93864.97;5088038;28;20028;-72
2021/06/14 02:53:09;;;;;;;6.45;1.73;;;;;;;12.84;58.01;93858.56;5096986;28;20449;-71
2021/06/14 02:55:40;;;;;;;;;;;;;;;12.84;57.86;93855.91;5109021;28;20023;-70
2021/06/14 02:58:07;;;;;;;6.45;1.45;;;;;;;12.80;58.06;93852.31;5109570;28;19915;-71
2021/06/14 03:00:33;;;;;;;2.72;1.60;;;;;;;12.88;58.13;93858.72;5109728;28;20027;-71
2021/06/14 03:03:02;;;;;;;5.32;1.65;;;;;;;12.82;58.05;93850.91;5092986;28;20080;-70
2021/06/14 03:05:29;;;;;;;8.00;2.00;;;;;;;12.78;58.59;93867.91;5096513;28;20035;-71
2021/06/14 03:07:57;;;;;;;8.68;2.08;;;;;;;12.73;58.24;93852.06;5089244;28;20032;-70
2021/06/14 03:10:24;;;;;;;7.15;1.50;;;;;;;12.75;58.28;93853.31;5089510;28;20028;-71
2021/06/14 03:12:53;;;;;;;6.72;1.70;;;;;;;12.71;58.12;93860.41;5087863;28;20051;-71
2021/06/14 03:15:19;;;;;;;3.75;1.85;;;;;;;12.71;58.05;93856.97;5103917;28;20027;-70
2021/06/14 03:17:45;;;;;;;3.03;1.63;;;;;;;12.74;58.20;93856.28;5108392;28;20028;-70
2021/06/14 03:20:12;;;;;;;6.88;1.88;;;;;;;12.76;58.17;93856.75;5088658;28;20082;-70
2021/06/14 03:22:39;;;;;;;4.55;1.38;;;;;;;12.74;58.17;93862.44;5089275;28;20094;-70
2021/06/14 03:25:05;;;;;;;4.55;1.77;;;;;;;12.76;58.15;93859.44;5088886;28;20028;-70
2021/06/14 03:27:31;;;;;;;4.50;1.73;;;;;;;12.76;58.63;93862.09;5087861;28;20436;-70
2021/06/14 03:29:58;;;;;;;7.50;1.65;;;;;;;12.78;58.14;93859.88;5089195;28;20063;-70
2021/06/14 03:32:23;;;;;;;3.78;1.70;;;;;;;12.80;58.38;93855.78;5095805;28;20024;-70
2021/06/14 03:34:52;;;;;;;6.97;1.80;;;;;;;12.80;58.53;93863.81;5088156;28;20031;-71
2021/06/14 03:37:17;;;;;;;3.88;1.90;;;;;;;12.89;58.75;93855.72;5091584;28;20471;-70
2021/06/14 03:39:43;;;;;;;3.45;1.67;;;;;;;12.90;58.53;93859.94;5108844;28;20056;-70
2021/06/14 03:42:09;;;;;;;3.35;1.60;;;;;;;12.93;58.07;93851.28;5112756;28;20042;-70
2021/06/14 03:44:36;;;;;;;6.55;1.65;;;;;;;12.85;58.93;93865.50;5112948;28;20039;-70
2021/06/14 03:47:01;;;;;;;6.45;1.40;;;;;;;12.79;59.25;93864.13;5105793;28;20490;-70
2021/06/14 03:49:27;;;;;;;10.90;1.92;;;;;;;12.76;58.61;93860.22;5096507;28;20087;-70
2021/06/14 03:51:52;;;;;;;5.22;1.63;;;;;;;12.79;59.12;93856.09;5107797;28;20087;-70
2021/06/14 03:54:17;;;;;;;3.38;1.67;;;;;;;12.79;59.43;93854.22;5111263;28;20515;-71
2021/06/14 03:56:43;;;;;;;3.22;1.98;;;;;;;12.75;59.23;93865.91;5111498;28;20054;-70
2021/06/14 03:59:08;;;;;;;5.43;1.67;;;;;;;12.66;58.55;93860.63;5111338;28;20032;-69
2021/06/14 04:01:34;;;;;;;8.52;1.80;;;;;;;12.72;58.85;93864.66;5111358;28;20479;-70
2021/06/14 04:06:26;;;;;;;4.03;1.70;;;;;;;12.79;58.68;93859.56;5097045;28;20031;-69
2021/06/14 04:08:51;;;;;;;11.05;1.73;;;;;;;12.72;58.75;93855.84;5112423;28;20031;-70
2021/06/14 04:11:17;;;;;;;3.60;1.83;;;;;;;12.75;58.83;93849.84;5110919;28;20051;-70
2021/06/14 04:13:42;;;;;;;7.03;1.60;;;;;;;12.81;58.62;93859.25;5098097;28;20032;-70
2021/06/14 04:16:08;;;;;;;8.15;1.25;;;;;;;12.92;57.79;93857.72;5091942;28;20372;-70
2021/06/14 04:18:33;;;;;;;5.10;1.90;;;;;;;12.91;57.91;93858.84;5090470;28;20020;-70
2021/06/14 04:20:58;;;;;;;4.50;1.50;;;;;;;12.95;57.20;93853.63;5091879;28;20108;-70
2021/06/14 04:23:24;;;;;;;4.50;1.73;;;;;;;13.02;57.30;93846.63;5108692;28;20078;-70
2021/06/14 04:25:49;;;;;;;6.25;1.58;;;;;;;13.10;56.52;93855.69;5112070;28;20474;-70
2021/06/14 04:28:15;;;;;;;4.70;1.55;;;;;;;13.10;56.53;93861.03;5102165;28;20059;-70
2021/06/14 04:30:40;;;;;;;6.93;1.50;;;;;;;13.14;56.17;93856.59;5105319;28;20130;-71
2021/06/14 04:33:06;;;;;;;3.83;1.40;;;;;;;13.22;56.29;93858.41;5112258;28;20027;-70
2021/06/14 04:35:32;;;;;;;8.63;1.55;;;;;;;13.24;55.68;93860.75;5110501;28;20031;-70
2021/06/14 04:37:57;;;;;;;8.23;1.50;;;;;;;13.23;56.37;93853.84;5112027;28;20066;-70
2021/06/14 04:40:23;;;;;;;3.60;1.40;;;;;;;13.29;56.51;93857.94;5127306;27;20089;-70
2021/06/14 04:42:48;;;;;;;3.95;1.40;;;;;;;13.32;56.08;93853.81;5110680;28;20526;-71
2021/06/14 04:45:14;;;;;;;2.92;1.60;;;;;;;13.38;55.92;93858.59;5111619;28;20134;-71
2021/06/14 04:47:40;;;;;;;3.50;1.50;;;;;;;13.16;55.41;93862.41;5110939;28;20494;-71
2021/06/14 04:50:06;;;;;;;6.57;1.50;;;;;;;13.14;55.36;93861.16;5110501;28;20024;-77
2021/06/14 04:52:31;;;;;;;3.67;1.42;;;;;;;13.13;56.12;93864.97;5111309;28;20036;-77
2021/06/14 04:54:57;;;;;;;4.00;1.75;;;;;;;13.16;56.39;93865.06;5105976;28;20216;-77
2021/06/14 04:57:23;;;;;;;2.63;1.40;;;;;;;13.11;56.64;93861.81;5111246;28;20031;-76
2021/06/14 04:59:48;;;;;;;4.13;1.60;;;;;;;13.14;56.45;93864.63;5111212;27;20030;-76
2021/06/14 05:02:14;;;;;;;4.15;1.40;;;;;;;13.21;56.80;93862.22;5110982;28;20422;-77
2021/06/14 05:04:39;;;;;;;4.22;1.25;;;;;;;13.19;56.10;93859.09;5109855;28;20045;-77
2021/06/14 05:07:05;;;;;;;4.50;1.27;;;;;;;13.26;56.03;93861.22;5102050;28;20462;-77
2021/06/14 05:09:31;;;;;;;5.00;1.85;;;;;;;13.27;55.49;93878.06;5089204;28;20028;-77
2021/06/14 05:11:56;;;;;;;2.50;1.30;;;;;;;13.24;56.22;93872.25;5102980;28;20048;-76
2021/06/14 05:14:21;;;;;;;2.45;1.40;;;;;;;13.28;55.44;93877.72;5115877;27;20031;-76
2021/06/14 05:16:47;;;;;;;7.63;1.70;;;;;;;13.27;55.29;93870.81;5092327;28;20078;-76
2021/06/14 05:19:12;;;;;;;3.78;1.92;;;;;;;13.18;55.15;93868.22;5104861;28;20089;-76
2021/06/14 05:21:38;;;;;;;7.80;1.20;;;;;;;13.32;56.10;93862.59;5100250;28;20031;-76
2021/06/14 05:24:04;;;;;;;3.60;1.58;;;;;;;13.22;55.00;93871.00;5094794;28;20483;-76
2021/06/14 05:26:30;;;;;;;4.53;1.70;;;;;;;13.28;55.64;93875.06;5102843;28;20051;-76
2021/06/14 05:28:56;;;;;;;3.10;1.55;;;;;;;13.34;55.32;93865.72;5101870;28;20438;-76
2021/06/14 05:31:21;;;;;;;2.42;1.40;;;;;;;13.38;56.75;93865.88;5098444;28;20028;-76
2021/06/14 05:33:47;;;;;;;3.92;1.63;;;;;;;13.57;56.67;93854.63;5100969;28;20086;-76
2021/06/14 05:36:12;;;;;;;4.07;1.30;;;;;;;13.66;55.75;93855.34;5095210;28;20103;-77
2021/06/14 05:38:38;;;;;;;4.63;1.50;;;;;;;13.75;55.56;93855.22;5091436;28;20068;-76
2021/06/14 05:41:03;;;;;;;3.67;1.40;;;;;;;13.73;54.50;93854.78;5089211;28;20517;-76
2021/06/14 05:43:29;;;;;;;6.80;1.60;;;;;;;13.81;55.30;93853.91;5098630;28;20031;-76
2021/06/14 05:45:54;;;;;;;2.97;1.63;;;;;;;13.84;55.33;93846.00;5107833;28;20028;-76
2021/06/14 05:48:20;;;;;;;8.45;2.35;;;;;;;13.84;54.39;93854.03;5109241;28;20421;-76
2021/06/14 05:50:45;;;;;;;5.65;1.55;;;;;;;13.86;55.09;93845.66;5097631;28;20110;-76
2021/06/14 05:53:12;;;;;;;3.00;1.52;;;;;;;13.83;54.68;93849.78;5092453;28;20050;-77
2021/06/14 05:55:38;;;;;;;2.42;1.30;;;;;;;13.87;54.16;93851.78;5097776;28;20039;-76
2021/06/14 05:58:03;;;;;;;5.82;1.33;;;;;;;13.78;53.21;93852.69;5088344;28;20493;-76
2021/06/14 06:00:29;;;;;;;10.10;1.50;;;;;;;13.75;52.16;93839.16;5088222;28;20502;-76
2021/06/14 06:02:54;;;;;;;9.75;1.55;;;;;;;13.68;53.59;93842.41;5103295;28;20023;-76
2021/06/14 06:05:20;;;;;;;5.97;1.90;;;;;;;13.71;54.22;93857.78;5095266;28;20125;-76
2021/06/14 06:07:45;;;;;;;5.57;1.98;;;;;;;13.69;54.05;93837.81;5092531;28;20019;-76
2021/06/14 06:10:11;;;;;;;4.45;1.63;;;;;;;13.72;54.38;93843.28;5093936;28;20028;-76
2021/06/14 06:12:38;;;;;;;2.38;1.23;;;;;;;13.83;55.34;93849.78;5109930;28;20516;-77
2021/06/14 06:15:09;;;;;;;2.80;1.35;;;;;;;13.99;52.64;93849.13;5105674;28;20410;-77
2021/06/14 06:17:34;;;;;;;6.75;1.50;;;;;;;14.05;54.83;93853.91;5110386;28;20003;-77
2021/06/14 06:20:00;;;;;;;3.38;1.42;;;;;;;14.13;53.71;93854.16;5096678;28;20031;-77
2021/06/14 06:22:25;;;;;;;3.55;1.63;;;;;;;14.08;53.73;93855.13;5095240;28;20100;-77
2021/06/14 06:24:51;;;;;;;5.10;1.40;;;;;;;14.20;54.15;93847.09;5101101;28;20028;-76
2021/06/14 06:27:17;;;;;;;6.90;2.20;;;;;;;14.15;53.53;93841.97;5093122;28;20096;-77
2021/06/14 06:29:42;;;;;;;4.53;1.58;;;;;;;14.24;52.45;93850.66;5107628;28;20019;-76
2021/06/14 06:32:09;;;;;;;6.15;1.55;;;;;;;14.35;52.87;93855.59;5109765;28;20030;-77
2021/06/14 06:34:34;;;;;;;19.40;2.05;;;;;;;14.38;50.27;93852.25;5104699;28;20109;-76
2021/06/14 06:36:59;;;;;;;3.75;1.50;;;;;;;14.45;51.04;93847.88;5101220;28;20558;-78
2021/06/14 06:39:25;;;;;;;4.10;1.60;;;;;;;14.49;50.63;93842.63;5106738;28;20019;-79
2021/06/14 06:41:50;;;;;;;3.92;1.40;;;;;;;14.44;50.59;93840.16;5098452;28;20019;-79
2021/06/14 06:44:16;;;;;;;6.13;1.40;;;;;;;14.36;50.56;93849.13;5101584;28;20086;-79
2021/06/14 06:46:41;;;;;;;2.65;1.35;;;;;;;14.39;49.32;93837.69;5111308;28;20015;-78
2021/06/14 06:49:06;;;;;;;3.40;1.40;;;;;;;14.37;48.69;93840.75;5105283;28;20483;-78
2021/06/14 06:51:32;;;;;;;1.95;1.08;;;;;;;14.43;49.19;93838.59;5094879;28;20020;-76
2021/06/14 06:54:13;;;;;;;6.28;1.75;;;;;;;14.48;48.38;93835.69;5104627;28;20098;-75
2021/06/14 06:56:41;;;;;;;6.50;1.40;;;;;;;14.41;47.96;93846.19;5089161;28;20394;-79
2021/06/14 06:59:06;;;;;;;3.10;1.40;;;;;;;14.44;46.94;93837.50;5108676;28;20053;-77
2021/06/14 07:01:32;;;;;;;5.13;1.02;;;;;;;14.45;47.62;93839.84;5108766;28;20032;-80
2021/06/14 07:03:57;;;;;;;2.40;1.38;;;;;;;14.54;48.00;93839.69;5108746;28;20028;-78
2021/06/14 07:06:23;;;;;;;7.53;1.80;;;;;;;14.55;49.25;93833.22;5091806;28;20024;-79
2021/06/14 07:08:48;;;;;;;3.00;1.40;;;;;;;14.70;50.04;93837.13;5100671;28;20026;-79
2021/06/14 07:11:13;;;;;;;5.32;1.08;;;;;;;14.84;46.77;93836.78;5111099;28;20035;-79
2021/06/14 07:13:39;;;;;;;5.38;1.45;;;;;;;14.82;45.32;93831.75;5103234;28;20050;-75
2021/06/14 07:16:04;;;;;;;3.70;1.70;;;;;;;14.82;47.41;93830.97;5092663;28;20099;-75
2021/06/14 07:18:30;;;;;;;3.67;1.20;;;;;;;14.86;46.55;93829.16;5114535;28;21630;-76
2021/06/14 07:20:58;;;;;;;7.07;1.27;;;;;;;14.90;45.88;93835.41;5099733;28;20406;-78
2021/06/14 07:23:24;;;;;;;4.80;1.40;;;;;;;15.04;44.99;93832.31;5105031;28;20026;-78
2021/06/14 07:25:49;;;;;;;8.20;1.25;;;;;;;15.10;44.02;93822.94;5098716;28;20036;-76
2021/06/14 07:28:15;;;;;;;9.95;1.08;;;;;;;15.14;44.07;93833.75;5104152;28;20019;-78
2021/06/14 07:30:40;;;;;;;2.28;1.38;;;;;;;15.13;43.85;93846.38;5114019;28;20031;-79
2021/06/14 07:33:06;;;;;;;2.42;0.93;;;;;;;15.22;43.18;93827.44;5114397;28;20579;-78
2021/06/14 07:35:32;;;;;;;3.85;1.23;;;;;;;15.39;43.67;93839.81;5113270;28;20027;-76
2021/06/14 07:37:59;;;;;;;3.90;1.15;;;;;;;15.58;42.30;93825.69;5128251;27;20110;-76
2021/06/14 07:40:25;;;;;;;9.30;1.63;;;;;;;15.73;41.82;93843.75;5103654;28;20463;-76
2021/06/14 07:42:50;;;;;;;4.20;0.93;;;;;;;15.74;38.19;93836.50;5104975;28;20091;-80
2021/06/14 07:45:21;;;;;;;6.70;1.23;;;;;;;15.71;39.47;93835.22;5104241;28;20043;-79
2021/06/14 07:47:47;;;;;;;5.15;1.02;;;;;;;15.59;40.06;93832.63;5106847;28;20027;-77
2021/06/14 07:50:13;;;;;;;3.40;1.20;;;;;;;15.75;40.30;93828.09;5101471;28;20490;-78
2021/06/14 07:52:38;;;;;;;1.55;0.70;;;;;;;15.84;40.33;93825.22;5107465;28;20023;-75
2021/06/14 07:55:04;;;;;;;4.88;1.15;;;;;;;16.04;40.75;93813.44;5101690;28;20031;-75
2021/06/14 07:57:29;;;;;;;3.97;0.90;;;;;;;16.01;40.71;93811.44;5097109;28;20024;-78
2021/06/14 07:59:55;;;;;;;2.33;0.90;;;;;;;15.93;41.31;93815.06;5091251;28;20016;-77
2021/06/14 08:02:20;;;;;;;1.63;0.88;;;;;;;15.85;41.52;93813.34;5092890;28;20073;-79
2021/06/14 08:04:46;;;;;;;4.18;1.05;;;;;;;15.76;40.97;93836.94;5090994;28;20051;-79
2021/06/14 08:07:11;;;;;;;5.28;1.08;;;;;;;15.54;40.61;93825.59;5105872;28;20020;-79
2021/06/14 08:09:36;;;;;;;4.82;0.98;;;;;;;15.55;40.74;93821.81;5104372;28;20036;-80
2021/06/14 08:12:03;;;;;;;2.53;1.20;;;;;;;15.56;40.72;93814.53;5103285;28;20073;-77
2021/06/14 08:14:28;;;;;;;7.63;1.10;;;;;;;15.57;42.42;93822.25;5100464;28;20036;-77
2021/06/14 08:16:54;;;;;;;3.58;1.08;;;;;;;15.64;42.34;93827.00;5100870;28;20046;-77
2021/06/14 08:27:38;;;;;;;3.10;1.17;;;;;;;15.38;45.59;93847.06;5094339;28;20048;-73
2021/06/14 08:30:10;;;;;;;2.25;0.95;;;;;;;15.43;45.03;93852.19;5095369;28;20035;-74
2021/06/14 08:32:36;;;;;;;3.77;1.50;;;;;;;15.35;43.72;93847.75;5107873;28;20036;-75
2021/06/14 08:35:04;;;;;;;5.95;1.10;;;;;;;15.34;44.77;93848.09;5095728;28;20019;-75
2021/06/14 08:37:29;;;;;;;8.35;1.60;;;;;;;15.15;44.83;93862.16;5111819;28;20083;-75
2021/06/14 08:39:55;;;;;;;3.45;1.50;;;;;;;15.04;46.14;93862.66;5093788;28;20071;-75
2021/06/14 08:42:21;;;;;;;2.50;1.40;;;;;;;15.02;46.20;93854.16;5091473;28;20077;-74
2021/06/14 08:44:46;;;;;;;9.95;1.65;;;;;;;14.87;47.70;93854.09;5100635;28;20030;-75
2021/06/14 08:47:12;;;;;;;3.47;1.48;;;;;;;15.04;47.94;93851.09;5111491;28;20031;-74
2021/06/14 08:49:38;;;;;;;3.20;1.42;;;;;;;15.07;47.86;93850.44;5100868;28;20031;-75
2021/06/14 08:52:06;;;;;;;9.82;1.45;;;;;;;15.05;47.42;93848.09;5105419;28;20028;-74
2021/06/14 08:54:32;;;;;;;4.25;1.35;;;;;;;15.04;47.75;93854.59;5111399;28;20127;-75
2021/06/14 08:56:59;;;;;;;3.50;1.20;;;;;;;15.15;47.71;93854.09;5098749;28;20498;-76
2021/06/14 08:59:24;;;;;;;5.00;1.50;;;;;;;15.13;48.14;93853.66;5110099;28;20125;-75
2021/06/14 09:01:50;;;;;;;5.05;1.30;;;;;;;15.15;47.82;93841.47;5109900;28;20051;-76
2021/06/14 09:04:16;;;;;;;3.92;1.17;;;;;;;15.25;48.08;93842.88;5110320;28;20024;-77
2021/06/14 09:06:42;;;;;;;4.00;1.80;;;;;;;15.42;48.01;93836.41;5110999;28;20042;-76
2021/06/14 09:09:08;;;;;;;4.60;1.45;;;;;;;15.58;47.39;93839.13;5110845;28;20371;-72
2021/06/14 09:11:36;;;;;;;2.22;1.30;;;;;;;15.73;47.84;93835.69;5111025;28;20109;-72
2021/06/14 09:14:12;;;;;;;5.57;1.45;;;;;;;15.88;46.48;93834.16;5111222;28;20547;-73
2021/06/14 09:16:38;;;;;;;5.50;1.77;;;;;;;15.91;45.39;93828.06;5109222;28;20050;-72
2021/06/14 09:19:03;;;;;;;6.72;1.13;;;;;;;16.07;45.46;93819.25;5088189;28;20016;-72
2021/06/14 09:21:30;;;;;;;4.97;1.60;;;;;;;16.02;46.02;93831.03;5088204;28;20027;-72
2021/06/14 09:24:05;;;;;;;2.95;1.30;;;;;;;15.98;46.39;93830.19;5092596;28;20028;-72
2021/06/14 09:26:39;;;;;;;7.25;1.25;;;;;;;16.02;47.20;93833.72;5088651;28;20023;-72
2021/06/14 09:29:09;;;;;;;3.25;1.08;;;;;;;15.99;44.67;93827.13;5088413;28;20020;-72
2021/06/14 09:31:55;;;;;;;6.70;1.58;;;;;;;16.00;46.38;93830.63;5099149;28;20024;-72
2021/06/14 09:34:46;;;;;;;6.72;1.80;;;;;;;15.67;52.30;93850.47;5090512;28;20062;-72
2021/06/14 09:37:15;;;;;;;18.27;2.40;;;;;;;14.87;57.70;93876.31;5093293;28;20085;-72
2021/06/14 09:39:45;;;;;;;9.13;1.83;;;;;;;14.56;60.17;93875.03;5109869;28;20112;-72
2021/06/14 09:42:23;;;;;;;9.48;2.55;;;;;;;14.19;61.03;93877.72;5101811;28;20493;-72
2021/06/14 09:44:50;;;;;;;7.05;2.20;;;;;;;13.98;62.46;93877.03;5090629;28;20037;-72
2021/06/14 09:47:16;;;;;;;10.32;2.35;;;;;;;13.89;63.25;93884.41;5101452;28;20027;-73
2021/06/14 09:50:11;;;;;;;3.83;1.38;;;;;;;13.69;62.83;93876.09;5109639;28;20032;-72
2021/06/14 09:52:37;;;;;;;8.50;1.60;;;;;;;13.30;63.87;93872.84;5089214;28;20107;-72
2021/06/14 09:55:16;;;;;;;5.55;2.00;;;;;;;13.03;65.64;93872.28;5088959;28;20510;-72
2021/06/14 09:57:41;;;;;;;5.43;1.52;;;;;;;12.80;65.46;93873.72;5089010;28;20038;-72
2021/06/14 10:00:11;;;;;;;3.13;1.48;;;;;;;12.64;64.55;93876.97;5090582;28;20111;-72
2021/06/14 10:02:37;;;;;;;3.97;1.58;;;;;;;12.57;65.32;93863.34;5101461;28;20031;-72
2021/06/14 10:05:20;;;;;;;4.82;1.30;;;;;;;12.64;64.89;93866.28;5109346;28;22238;-72
2021/06/14 10:07:47;;;;;;;3.53;1.63;;;;;;;12.69;64.76;93859.94;5110384;27;20031;-72
2021/06/14 10:10:33;;;;;;;6.28;1.35;;;;;;;12.70;63.47;93860.72;5110427;28;20031;-72
2021/06/14 10:12:59;;;;;;;2.55;1.15;;;;;;;12.69;64.61;93867.97;5089976;28;20044;-72
2021/06/14 10:15:33;;;;;;;5.13;1.60;;;;;;;12.70;66.25;93876.78;5090209;28;20076;-72
2021/06/14 10:18:00;;;;;;;8.63;2.00;;;;;;;12.72;66.77;93885.25;5089939;28;20042;-72
2021/06/14 10:20:27;;;;;;;8.70;1.75;;;;;;;12.68;66.87;93889.69;5090080;28;20041;-72
2021/06/14 10:22:59;;;;;;;3.53;1.70;;;;;;;12.79;66.99;93904.25;5088736;28;20032;-72
2021/06/14 10:25:26;;;;;;;10.07;2.13;;;;;;;12.83;67.08;93899.81;5088440;28;20126;-72
2021/06/14 10:27:53;;;;;;;3.63;1.92;;;;;;;12.93;67.89;93887.94;5088379;28;20496;-74
2021/06/14 10:30:20;;;;;;;9.82;2.10;;;;;;;13.01;69.21;93871.81;5095286;28;20028;-76
2021/06/14 10:32:46;;;;;;;7.22;1.95;;;;;;;13.10;69.40;93865.63;5100345;28;20031;-77
2021/06/14 10:35:15;;;;;;;5.20;1.70;;;;;;;12.99;66.66;93866.00;5108649;28;20115;-80
2021/06/14 10:37:46;;;;;;;6.93;1.80;;;;;;;12.94;67.56;93858.19;5095004;28;20024;-78
2021/06/14 10:40:14;;;;;;;3.45;2.15;;;;;;;12.95;70.75;93861.66;5093515;28;20398;-78
2021/06/14 10:42:41;;;;;;;6.53;2.22;;;;;;;13.05;70.54;93861.25;5102993;28;20027;-78
2021/06/14 10:45:11;;;;;;;4.78;1.90;;;;;;;13.14;71.07;93856.59;5090842;28;20112;-76
2021/06/14 10:47:39;;;;;;;2.97;1.80;;;;;;;13.25;68.81;93843.59;5096557;28;20410;-75
2021/06/14 10:50:05;;;;;;;7.05;2.00;;;;;;;13.26;66.33;93839.81;5093847;28;20384;-75
2021/06/14 10:52:44;;;;;;;2.15;1.15;;;;;;;13.25;63.32;93843.59;5100973;28;20016;-77
2021/06/14 10:55:12;;;;;;;4.05;1.75;;;;;;;13.16;65.73;93835.63;5101388;28;20027;-76
2021/06/14 10:57:40;;;;;;;6.05;1.50;;;;;;;13.16;64.67;93837.53;5108388;28;20085;-76
2021/06/14 11:00:17;;;;;;;3.25;1.50;;;;;;;13.19;63.15;93834.22;5101538;28;20049;-78
2021/06/14 11:03:01;;;;;;;7.10;1.92;;;;;;;13.29;65.61;93849.91;5099402;28;20093;-77
2021/06/14 11:05:29;;;;;;;3.25;2.17;;;;;;;13.46;64.26;93830.19;5104829;28;20069;-77
2021/06/14 11:07:54;;;;;;;7.43;1.77;;;;;;;13.61;64.43;93831.44;5110116;28;20059;-76
2021/06/14 11:10:26;;;;;;;6.18;1.85;;;;;;;13.66;62.91;93833.91;5105798;28;20148;-75
2021/06/14 11:12:52;;;;;;;5.60;1.80;;;;;;;13.74;62.99;93834.91;5106808;28;20063;-74
2021/06/14 11:15:20;;;;;;;7.13;1.75;;;;;;;13.86;59.39;93832.28;5095682;28;20032;-75
2021/06/14 11:17:45;;;;;;;3.22;1.83;;;;;;;13.96;58.42;93820.31;5105787;28;20051;-76
2021/06/14 11:20:13;;;;;;;3.42;1.48;;;;;;;14.17;58.84;93812.94;5097192;28;20024;-74
2021/06/14 11:22:54;;;;;;;2.45;1.58;;;;;;;14.35;58.57;93815.38;5104269;28;20028;-77
2021/06/14 11:25:24;;;;;;;3.35;1.60;;;;;;;14.37;61.99;93816.59;5108415;28;20153;-75
2021/06/14 11:27:50;;;;;;;5.30;1.98;;;;;;;14.36;59.71;93811.56;5101157;28;20034;-75
2021/06/14 11:30:18;;;;;;;5.25;2.08;;;;;;;14.46;60.17;93813.78;5098320;28;20024;-75
2021/06/14 11:32:44;;;;;;;5.07;3.30;;;;;;;14.68;60.58;93823.28;5107043;28;20035;-77
2021/06/14 11:35:12;;;;;;;5.22;1.65;;;;;;;14.82;59.08;93812.94;5105562;28;20402;-78
2021/06/14 11:37:40;;;;;;;5.55;1.98;;;;;;;14.90;55.16;93816.63;5104999;28;20055;-76
2021/06/14 11:40:08;;;;;;;5.45;2.03;;;;;;;14.97;60.77;93811.44;5109137;28;20483;-76
2021/06/14 11:42:45;;;;;;;3.05;1.52;;;;;;;15.18;59.55;93808.56;5093946;28;20446;-74
2021/06/14 11:45:25;;;;;;;10.70;2.13;;;;;;;15.33;58.41;93803.59;5102730;28;20031;-77
2021/06/14 11:47:51;;;;;;;5.80;1.60;;;;;;;15.42;58.40;93802.28;5103933;28;20065;-77